Notice: Undefined index: wuKey in /web/htdocs/www.meteopomezia.it/home/weather28/wuforecast/wualmanac.php on line 27




Webcam Castelli Romani more information Webcam Castelli Romani


Webcam Traffico live more information Webcam Traffico live


avvertimento per Temporali more information blitzortung!


avvertimento per Pioggia more information rain snow radar


altri nostri siti meteo:

Rischio IncendiRischio Incendi

Meteo-CloudBanner Meteo-Cloud

Pomeziameteo 1Sito sul meteo

Pomeziameteo DashboardSito sul meteo

Caput FrigorisSito sul meteo

BarcellonameteoSito sul meteo

MeteoipassiSito sul meteo

ViterbometeoSito sul meteo

TortoretometeolidoSito sul meteo

MeteospinacetoSito sul meteo

MeteoardeaSito sul meteo

MeteopalestrinaSito sul meteo

MeteocastelliSito sul meteo

MeteoiserniaSito sul meteo

RomaeurmeteoSito sul meteo

MeteomarconiaSito sul meteo

CastelnuovovomanometeoSito sul meteo

MeteogonzagaSito sul meteo

MeteonetworkInvio dai a Meteonetwork

Rete Linea MeteoInvio dai a Meteonetwork

DesotermicaBanner Desotermica



Vento Da: 13-12-2019 12:00 Fino a: 14-12-2019 06:59 Avvertimento per: Vento Livello: Rosso info button
Temporali Da: 13-12-2019 12:00 Fino a: 18:59 Avvertimento per: Temporali Livello: Arancio info button
Pioggia Da: 13-12-2019 12:00 Fino a: 18:59 Avvertimento per: Pioggia Livello: Arancio info button

Report METAR

   
LIRE - Pratica Di Mare(, Italy
Distanza dalla stazione: W 9 km
Dati ricevuti: 13-12-2019 20:55
Parzialmente nuvoloso  
Parzialmente nuvoloso  
   Vento: NO 24.1 km/h<br />Gust to 24.1 km/h
Vento: NO 24.1 km/h
Gust to 24.1 km/h
Temperatura: 12°C
P.to Rugiada: 8°C
Umidita: 77%
Barometro: 986 hPa
Nuvole: Parzialmente nuvoloso
Visibilita: oltre 10 km
dettagli cloud: Poche nuvole 609.6 m,
Parzialmente nuvoloso 762 m
LIRE 131955Z 32013G25KT 9999 FEW020 SCT025 12/08 Q0986
LIRA - Ciampino(It-Afb/, Italy
Distanza dalla stazione: NE 16 km
Dati ricevuti: 13-12-2019 21:50
Parzialmente nuvoloso  
Parzialmente nuvoloso  
   Vento: NNW 25.9 km/h
Vento: NNW 25.9 km/h
Temperatura: 10°C
Temperatura Vento: 7°C
P.to Rugiada: 4°C
Umidita: 67%
Barometro: 989 hPa
Nuvole: Parzialmente nuvoloso
Visibilita: oltre 10 km
dettagli cloud: Parzialmente nuvoloso 1219.2 m
LIRA 132050Z 33014KT 9999 SCT040 10/04 Q0989
LIRF - Rome/Fiumicino, Italy
Distanza dalla stazione: W 27 km
Dati ricevuti: 13-12-2019 21:50
Parzialmente nuvoloso  
Parzialmente nuvoloso  
   Vento: NNW 42.6 km/h
Vento: NNW 42.6 km/h
Temperatura: 13°C
P.to Rugiada: 5°C
Umidita: 59%
Barometro: 988 hPa
Nuvole: Parzialmente nuvoloso
Visibilita: oltre 10 km
dettagli cloud: Parzialmente nuvoloso 1371.6 m
LIRF 132050Z 33023KT 9999 SCT045 13/05 Q0988 WS R34L NOSIG
LIRU - Rome/Urbe (it-Af, Italy
Distanza dalla stazione: N 31 km
Dati ricevuti: 13-12-2019 16:50
DATI Obsoleti
Nebbia, Nearby Thunderstorm, Molto nuvoloso  
Nebbia, Nearby Thunderstorm, Molto nuvoloso  
   Vento: W 20.4 km/h
Vento: W 20.4 km/h
Temperatura: 14°C
P.to Rugiada: 11°C
Umidita: 82%
Barometro: 985 hPa
Nuvole: Molto nuvoloso
Visibilita: 4 km
dettagli cloud: Poche nuvole 304.8 m,
Molto nuvoloso 609.6 m
LIRU 131550Z 25011KT 220V280 3500 BR VCTS FEW010CB BKN020 14/11 Q0985 RETS RESH
LIRL - Latina (it-Afb), Italy
Distanza dalla stazione: SE 36 km
Dati ricevuti: 13-12-2019 18:55
DATI Obsoleti
Pioggia leggera, Parzialmente nuvoloso  
Pioggia leggera, Parzialmente nuvoloso  
   Vento: W 31.5 km/h<br />Gust to 31.5 km/h
Vento: W 31.5 km/h
Gust to 31.5 km/h
Temperatura: 10°C
Temperatura Vento: 7°C
P.to Rugiada: 5°C
Umidita: 71%
Barometro: 986 hPa
Nuvole: Parzialmente nuvoloso
Visibilita: 8 km
dettagli cloud: Parzialmente nuvoloso 457.2 m,
Poche nuvole 609.6 m,
Parzialmente nuvoloso 1219.2 m
LIRL 131755Z 30017G30KT 8000 -RA SCT015 FEW020CB SCT040 10/05 Q0986 RETS
LIRG - Guidonia (it-Afb, Italy
Distanza dalla stazione: NE 41 km
Dati ricevuti: 13-12-2019 18:55
DATI Obsoleti
Parzialmente nuvoloso  
Parzialmente nuvoloso  
   Vento: NO 20.4 km/h
Vento: NO 20.4 km/h
Temperatura: 11°C
P.to Rugiada: 3°C
Umidita: 58%
Barometro: 986 hPa
Nuvole: Parzialmente nuvoloso
Visibilita: oltre 10 km
dettagli cloud: Poche nuvole 762 m,
Parzialmente nuvoloso 914.4 m
LIRG 131755Z 32011KT 9999 FEW025 SCT030 11/03 Q0986 RERA

Script sviluppato da  Saratoga-weather.org Adattato per il modello da  Weerstation Leuven

Potete trovare le nostre info meteo anche a:

European Weather Network

Weather Underground

AWEKAS

Citizen Weather Observer Program (CWOP)

HAMweather, WeatherForYou, PWS Weather

Strumentazione usata:

Stazione meteo
Davis VP2

Programma gestore dati meteo
WVIEW

Server per i dati meteo
Pc-WDS5

Provider
PC-HP-6005

Davis VP2

WVIEW

Pc-WDS5

PC-HP-6005